createdAt,value
2022-08-22T00:02:14.009Z,37.64
2022-08-22T00:02:47.572Z,37.42
2022-08-22T00:02:57.556Z,34.31
2022-08-22T00:03:11.649Z,34.33
2022-08-22T00:05:05.536Z,37.67
2022-08-22T00:07:46.741Z,37.67
2022-08-22T00:10:25.519Z,37.70
2022-08-22T00:13:00.766Z,37.78
2022-08-22T00:15:43.668Z,37.76
2022-08-22T00:18:20.895Z,37.74
2022-08-22T00:21:17.325Z,37.85
2022-08-22T00:23:58.178Z,37.90
2022-08-22T00:26:45.678Z,37.92
2022-08-22T00:29:20.970Z,37.96
2022-08-22T00:32:10.300Z,38.00
2022-08-22T00:35:01.264Z,37.98
2022-08-22T00:37:45.259Z,38.02
2022-08-22T00:40:32.543Z,38.07
2022-08-22T00:43:22.444Z,38.24
2022-08-22T00:46:16.013Z,38.23
2022-08-22T00:49:12.245Z,38.35
2022-08-22T00:51:56.033Z,38.34
2022-08-22T00:54:36.671Z,38.38
2022-08-22T00:57:14.653Z,38.40
2022-08-22T01:00:18.356Z,38.48
2022-08-22T01:03:07.696Z,38.62
2022-08-22T01:06:05.095Z,38.75
2022-08-22T01:09:01.646Z,38.85
2022-08-22T01:11:44.132Z,39.02
2022-08-22T01:14:40.593Z,39.25
2022-08-22T01:17:25.133Z,39.41
2022-08-22T01:20:22.651Z,39.59
2022-08-22T01:23:09.861Z,39.88
2022-08-22T01:25:50.941Z,40.11
2022-08-22T01:28:28.802Z,40.31
2022-08-22T01:31:18.847Z,40.53
2022-08-22T01:34:12.771Z,40.71
2022-08-22T01:36:49.438Z,41.00
2022-08-22T01:39:27.759Z,41.33
2022-08-22T01:42:17.734Z,41.58
2022-08-22T01:45:26.279Z,41.87
2022-08-22T01:48:13.104Z,42.12
2022-08-22T01:50:50.856Z,42.37
2022-08-22T01:53:32.097Z,42.60
2022-08-22T01:56:24.048Z,42.83
2022-08-22T01:59:11.122Z,43.05
2022-08-22T02:02:16.998Z,43.34
2022-08-22T02:04:58.292Z,43.54
2022-08-22T02:07:32.919Z,43.78
2022-08-22T02:10:23.136Z,44.05
2022-08-22T02:13:23.353Z,44.21
2022-08-22T02:16:13.356Z,44.38
2022-08-22T02:19:08.305Z,44.56
2022-08-22T02:21:56.513Z,44.74
2022-08-22T02:24:47.923Z,44.88
2022-08-22T02:27:22.874Z,45.01
2022-08-22T02:30:00.366Z,45.20
2022-08-22T02:32:35.539Z,45.22
2022-08-22T02:35:13.011Z,45.31
2022-08-22T02:38:07.462Z,45.36
2022-08-22T02:40:42.978Z,45.47
2022-08-22T02:43:29.718Z,45.55
2022-08-22T02:46:21.158Z,45.60
2022-08-22T02:48:56.001Z,45.63
2022-08-22T02:51:55.277Z,45.55
2022-08-22T02:54:33.182Z,45.65
2022-08-22T02:57:17.312Z,45.74
2022-08-22T03:00:30.737Z,45.69
2022-08-22T03:02:46.557Z,45.80
2022-08-22T03:05:30.790Z,45.87
2022-08-22T03:08:30.813Z,45.81
2022-08-22T03:11:09.228Z,45.88
2022-08-22T03:14:14.363Z,45.93
2022-08-22T03:16:52.864Z,46.00
2022-08-22T03:19:36.962Z,46.20
2022-08-22T03:22:14.439Z,46.29
2022-08-22T03:25:07.679Z,46.32
2022-08-22T03:27:54.826Z,46.39
2022-08-22T03:30:44.702Z,46.47
2022-08-22T03:33:19.711Z,46.43
2022-08-22T03:36:09.739Z,46.60
2022-08-22T03:39:09.753Z,46.57
2022-08-22T03:41:53.302Z,46.71
2022-08-22T03:44:44.977Z,46.67
2022-08-22T03:47:34.662Z,46.63
2022-08-22T03:50:27.516Z,46.59
2022-08-22T03:53:18.449Z,46.47
2022-08-22T03:55:47.881Z,46.48
2022-08-22T03:58:43.087Z,46.61
2022-08-22T04:01:37.684Z,46.56
2022-08-22T04:04:32.104Z,46.48
2022-08-22T04:07:09.360Z,46.27
2022-08-22T04:10:04.957Z,46.26
2022-08-22T04:13:11.484Z,46.34
2022-08-22T04:15:52.880Z,46.04
2022-08-22T04:18:51.962Z,46.07
2022-08-22T04:21:43.797Z,46.14
2022-08-22T04:24:38.177Z,45.81
2022-08-22T04:27:37.707Z,45.59
2022-08-22T04:30:18.799Z,45.45
2022-08-22T04:33:18.104Z,45.73
2022-08-22T04:35:58.789Z,45.55
2022-08-22T04:38:43.112Z,45.51
2022-08-22T04:41:24.929Z,45.24
2022-08-22T04:44:00.194Z,45.27
2022-08-22T04:46:45.006Z,45.33
2022-08-22T04:49:22.517Z,44.92
2022-08-22T04:52:00.383Z,44.68
2022-08-22T04:55:05.900Z,44.72
2022-08-22T04:58:06.693Z,44.72
2022-08-22T05:00:51.344Z,45.03
2022-08-22T05:03:23.269Z,44.78
2022-08-22T05:05:56.509Z,44.89
2022-08-22T05:08:31.258Z,44.67
2022-08-22T05:11:04.051Z,44.70
2022-08-22T05:13:51.114Z,44.40
2022-08-22T05:16:26.721Z,44.34
2022-08-22T05:19:04.096Z,44.22
2022-08-22T05:21:38.747Z,44.34
2022-08-22T05:24:13.244Z,44.63
2022-08-22T05:26:48.040Z,44.55
2022-08-22T05:29:21.863Z,44.38
2022-08-22T05:32:02.968Z,44.46
2022-08-22T05:34:40.313Z,44.73
2022-08-22T05:37:15.782Z,44.44
2022-08-22T05:39:50.168Z,44.44
2022-08-22T05:42:27.809Z,44.18
2022-08-22T05:45:01.915Z,44.20
2022-08-22T05:47:39.972Z,44.11
2022-08-22T05:50:26.831Z,43.95
2022-08-22T05:53:10.831Z,43.85
2022-08-22T05:55:57.064Z,43.67
2022-08-22T05:58:35.120Z,43.35
2022-08-22T06:01:22.283Z,43.45
2022-08-22T06:04:09.665Z,43.00
2022-08-22T06:07:09.123Z,42.81
2022-08-22T06:09:51.428Z,42.48
2022-08-22T06:12:32.189Z,42.22
2022-08-22T06:15:20.928Z,42.27
2022-08-22T06:17:55.117Z,41.96
2022-08-22T06:20:45.463Z,41.71
2022-08-22T06:23:25.337Z,40.99
2022-08-22T06:26:00.029Z,40.54
2022-08-22T06:28:35.053Z,40.11
2022-08-22T06:31:07.927Z,39.33
2022-08-22T06:33:42.376Z,39.14
2022-08-22T06:36:32.012Z,38.56
2022-08-22T06:39:12.932Z,38.31
2022-08-22T06:41:51.268Z,37.89
2022-08-22T06:44:32.360Z,37.58
2022-08-22T06:47:07.554Z,36.96
2022-08-22T06:49:40.345Z,36.74
2022-08-22T06:52:20.410Z,36.51
2022-08-22T06:54:55.301Z,36.51
2022-08-22T06:57:46.692Z,36.07
2022-08-22T07:00:21.359Z,36.29
2022-08-22T07:03:01.533Z,36.19
2022-08-22T07:05:39.069Z,36.38
2022-08-22T07:08:20.344Z,36.03
2022-08-22T07:11:12.777Z,36.30
2022-08-22T07:13:53.608Z,36.26
2022-08-22T07:16:48.763Z,35.23
2022-08-22T07:19:26.259Z,34.22
2022-08-22T07:21:58.805Z,33.80
2022-08-22T07:24:32.793Z,33.66
2022-08-22T07:27:23.341Z,33.35
2022-08-22T07:30:12.893Z,33.05
2022-08-22T07:33:26.831Z,32.87
2022-08-22T07:35:39.305Z,32.27
2022-08-22T07:38:32.178Z,31.80
2022-08-22T07:41:13.153Z,31.67
2022-08-22T07:43:57.783Z,31.67
2022-08-22T07:46:37.639Z,31.19
2022-08-22T07:49:22.599Z,30.70
2022-08-22T07:51:57.882Z,30.66
2022-08-22T07:54:33.020Z,30.16
2022-08-22T07:57:10.871Z,29.59
2022-08-22T07:59:45.726Z,28.68
2022-08-22T08:02:18.687Z,28.28
2022-08-22T08:04:51.926Z,27.81
2022-08-22T08:07:27.081Z,27.58
2022-08-22T08:10:02.621Z,27.26
2022-08-22T08:12:37.373Z,26.58
2022-08-22T08:15:12.290Z,26.15
2022-08-22T08:17:44.279Z,26.59
2022-08-22T08:20:17.812Z,26.50
2022-08-22T08:22:49.559Z,26.31
2022-08-22T08:25:24.163Z,26.12
2022-08-22T08:28:14.189Z,26.22
2022-08-22T08:30:48.739Z,26.26
2022-08-22T08:33:24.866Z,26.55
2022-08-22T08:36:05.733Z,25.81
2022-08-22T08:38:40.869Z,25.49
2022-08-22T08:41:38.477Z,25.38
2022-08-22T08:44:36.020Z,24.88
2022-08-22T08:47:22.939Z,25.02
2022-08-22T08:50:26.638Z,25.17
2022-08-22T08:53:23.990Z,25.34
2022-08-22T08:56:04.718Z,25.37
2022-08-22T08:58:39.742Z,25.32
2022-08-22T09:01:38.754Z,25.10
2022-08-22T09:04:47.038Z,24.79
2022-08-22T09:07:54.287Z,25.11
2022-08-22T09:10:45.688Z,25.00
2022-08-22T09:13:24.257Z,25.48
2022-08-22T09:16:05.240Z,25.16
2022-08-22T09:18:45.040Z,25.16
2022-08-22T09:21:36.867Z,25.01
2022-08-22T09:24:37.858Z,24.94
2022-08-22T09:27:26.451Z,25.30
2022-08-22T09:30:08.892Z,25.04
2022-08-22T09:33:03.415Z,25.17
2022-08-22T09:35:58.047Z,25.64
2022-08-22T09:38:40.448Z,25.21
2022-08-22T09:41:36.743Z,25.28
2022-08-22T09:44:12.039Z,25.51
2022-08-22T09:46:53.362Z,25.38
2022-08-22T09:49:32.879Z,25.18
2022-08-22T09:52:14.361Z,25.36
2022-08-22T09:54:47.670Z,25.26
2022-08-22T09:57:39.809Z,24.92
2022-08-22T10:00:25.911Z,24.57
2022-08-22T10:03:03.770Z,24.26
2022-08-22T10:05:48.197Z,23.96
2022-08-22T10:08:48.758Z,24.04
2022-08-22T10:11:28.986Z,24.41
2022-08-22T10:14:22.317Z,24.47
2022-08-22T10:17:16.023Z,24.13
2022-08-22T10:19:52.688Z,23.95
2022-08-22T10:22:44.769Z,24.26
2022-08-22T10:25:35.209Z,23.80
2022-08-22T10:28:22.106Z,24.00
2022-08-22T10:31:01.568Z,24.26
2022-08-22T10:33:39.777Z,24.03
2022-08-22T10:36:23.775Z,23.77
2022-08-22T10:38:59.252Z,23.73
2022-08-22T10:41:45.414Z,23.80
2022-08-22T10:44:23.045Z,23.96
2022-08-22T10:47:04.109Z,23.84
2022-08-22T10:49:51.124Z,24.02
2022-08-22T10:52:28.933Z,23.72
2022-08-22T10:55:05.681Z,24.08
2022-08-22T10:58:07.046Z,23.82
2022-08-22T11:00:59.672Z,23.90
2022-08-22T11:03:40.713Z,23.66
2022-08-22T11:06:19.067Z,22.99
2022-08-22T11:08:54.381Z,22.54
2022-08-22T11:11:38.682Z,22.92
2022-08-22T11:14:42.415Z,22.73
2022-08-22T11:17:28.250Z,22.64
2022-08-22T11:20:05.950Z,22.52
2022-08-22T11:22:48.844Z,22.16
2022-08-22T11:25:35.951Z,22.09
2022-08-22T11:28:02.977Z,22.15
2022-08-22T11:30:48.348Z,21.94
2022-08-22T11:33:47.438Z,22.07
2022-08-22T11:36:17.466Z,21.93
2022-08-22T11:39:18.652Z,21.80
2022-08-22T11:42:02.236Z,21.86
2022-08-22T11:44:50.183Z,21.29
2022-08-22T11:47:12.961Z,21.64
2022-08-22T11:50:13.419Z,21.45
2022-08-22T11:52:51.942Z,21.43
2022-08-22T11:55:42.507Z,20.96
2022-08-22T11:58:28.686Z,20.50
2022-08-22T12:01:03.145Z,20.76
2022-08-22T12:03:51.059Z,21.07
2022-08-22T12:06:51.690Z,21.32
2022-08-22T12:09:35.986Z,20.77
2022-08-22T12:12:17.087Z,20.93
2022-08-22T12:14:54.691Z,20.81
2022-08-22T12:17:55.064Z,20.84
2022-08-22T12:20:45.435Z,21.08
2022-08-22T12:23:49.510Z,20.96
2022-08-22T12:26:25.282Z,20.79
2022-08-22T12:29:17.096Z,20.86
2022-08-22T12:32:27.505Z,21.07
2022-08-22T12:35:14.659Z,21.14
2022-08-22T12:37:52.823Z,21.23
2022-08-22T12:40:38.295Z,21.34
2022-08-22T12:43:23.225Z,21.16
2022-08-22T12:46:30.690Z,21.47
2022-08-22T12:49:22.093Z,21.20
2022-08-22T12:52:09.221Z,21.54
2022-08-22T12:54:51.177Z,21.31
2022-08-22T12:57:44.570Z,21.17
2022-08-22T13:00:31.715Z,20.69
2022-08-22T13:03:17.983Z,20.94
2022-08-22T13:05:57.128Z,21.01
2022-08-22T13:08:26.552Z,20.72
2022-08-22T13:11:01.633Z,20.63
2022-08-22T13:13:39.874Z,20.75
2022-08-22T13:16:15.767Z,20.79
2022-08-22T13:18:56.731Z,20.90
2022-08-22T13:21:34.943Z,21.00
2022-08-22T13:24:22.862Z,20.71
2022-08-22T13:26:56.952Z,20.71
2022-08-22T13:29:43.483Z,20.63
2022-08-22T13:32:21.396Z,20.39
2022-08-22T13:34:56.865Z,20.33
2022-08-22T13:37:34.706Z,20.49
2022-08-22T13:40:10.126Z,19.96
2022-08-22T13:42:49.883Z,20.11
2022-08-22T13:45:27.760Z,20.85
2022-08-22T13:48:03.974Z,20.44
2022-08-22T13:50:53.054Z,20.23
2022-08-22T13:53:16.183Z,20.40
2022-08-22T13:55:54.980Z,20.45
2022-08-22T13:58:37.533Z,20.35
2022-08-22T14:01:31.425Z,20.26
2022-08-22T14:04:34.744Z,20.13
2022-08-22T14:07:06.503Z,20.39
2022-08-22T14:09:56.802Z,20.27
2022-08-22T14:12:50.135Z,20.47
2022-08-22T14:15:13.128Z,20.43
2022-08-22T14:17:48.347Z,20.61
2022-08-22T14:20:32.622Z,20.47
2022-08-22T14:23:17.577Z,20.50
2022-08-22T14:25:49.576Z,20.12
2022-08-22T14:28:29.847Z,20.17
2022-08-22T14:31:13.547Z,20.60
2022-08-22T14:33:51.346Z,20.56
2022-08-22T14:36:25.570Z,20.20
2022-08-22T14:39:01.314Z,20.27
2022-08-22T14:41:52.817Z,20.40
2022-08-22T14:44:33.835Z,20.62
2022-08-22T14:47:30.342Z,20.45
2022-08-22T14:49:52.971Z,20.26
2022-08-22T14:52:36.789Z,20.36
2022-08-22T14:55:12.054Z,20.49
2022-08-22T14:57:51.592Z,20.82
2022-08-22T15:00:29.880Z,20.79
2022-08-22T15:03:10.702Z,20.46
2022-08-22T15:05:45.612Z,20.59
2022-08-22T15:08:48.490Z,20.69
2022-08-22T15:11:25.213Z,20.72
2022-08-22T15:14:12.706Z,20.98
2022-08-22T15:16:53.387Z,20.87
2022-08-22T15:19:41.259Z,20.93
2022-08-22T15:22:25.716Z,21.04
2022-08-22T15:25:18.231Z,21.29
2022-08-22T15:27:59.670Z,21.12
2022-08-22T15:30:44.267Z,21.34
2022-08-22T15:33:19.854Z,21.43
2022-08-22T15:35:52.925Z,21.67
2022-08-22T15:38:36.427Z,21.69
2022-08-22T15:41:36.575Z,21.73
2022-08-22T15:44:32.492Z,21.85
2022-08-22T15:47:11.840Z,22.02
2022-08-22T15:49:52.995Z,22.21
2022-08-22T15:52:28.666Z,22.31
2022-08-22T15:55:19.156Z,22.41
2022-08-22T15:58:02.117Z,22.47
2022-08-22T16:00:36.625Z,22.43
2022-08-22T16:03:29.993Z,22.56
2022-08-22T16:06:07.396Z,22.77
2022-08-22T16:08:50.212Z,22.86
2022-08-22T16:11:33.068Z,22.96
2022-08-22T16:14:21.246Z,23.15
2022-08-22T16:17:09.533Z,23.26
2022-08-22T16:19:42.075Z,23.41
2022-08-22T16:22:14.380Z,23.59
2022-08-22T16:24:55.516Z,23.73
2022-08-22T16:27:28.131Z,23.79
2022-08-22T16:30:08.877Z,23.92
2022-08-22T16:32:40.701Z,23.99
2022-08-22T16:35:12.597Z,24.18
2022-08-22T16:37:47.973Z,24.25
2022-08-22T16:40:24.695Z,24.42
2022-08-22T16:43:17.591Z,24.42
2022-08-22T16:45:49.351Z,24.55
2022-08-22T16:48:37.693Z,24.75
2022-08-22T16:51:18.951Z,24.86
2022-08-22T16:54:06.465Z,24.97
2022-08-22T16:57:01.200Z,25.15
2022-08-22T16:59:38.786Z,25.40
2022-08-22T17:02:29.151Z,25.50
2022-08-22T17:05:07.042Z,25.72
2022-08-22T17:07:59.044Z,25.89
2022-08-22T17:10:39.658Z,26.08
2022-08-22T17:13:15.121Z,26.30
2022-08-22T17:16:05.971Z,26.55
2022-08-22T17:18:44.129Z,26.78
2022-08-22T17:21:28.652Z,27.03
2022-08-22T17:24:31.544Z,27.29
2022-08-22T17:26:55.127Z,27.54
2022-08-22T17:29:39.361Z,27.87
2022-08-22T17:32:17.214Z,28.07
2022-08-22T17:34:52.148Z,28.26
2022-08-22T17:37:42.016Z,28.47
2022-08-22T17:40:23.356Z,28.58
2022-08-22T17:43:16.745Z,28.82
2022-08-22T17:46:13.383Z,28.93
2022-08-22T17:48:49.076Z,29.03
2022-08-22T17:51:33.098Z,29.16
2022-08-22T17:54:29.674Z,29.29
2022-08-22T17:57:08.001Z,29.41
2022-08-22T17:59:55.261Z,29.47
2022-08-22T18:02:46.381Z,29.59
2022-08-22T18:05:21.235Z,29.70
2022-08-22T18:08:37.524Z,29.83
2022-08-22T18:10:58.014Z,29.96
2022-08-22T18:13:41.730Z,30.04
2022-08-22T18:16:33.078Z,30.23
2022-08-22T18:19:20.030Z,30.35
2022-08-22T18:22:02.626Z,30.39
2022-08-22T18:25:02.411Z,30.51
2022-08-22T18:27:53.434Z,30.58
2022-08-22T18:30:36.803Z,30.69
2022-08-22T18:33:32.797Z,30.67
2022-08-22T18:36:15.828Z,30.71
2022-08-22T18:39:04.412Z,30.80
2022-08-22T18:41:39.586Z,30.86
2022-08-22T18:44:12.874Z,30.89
2022-08-22T18:46:47.319Z,30.96
2022-08-22T18:49:26.706Z,31.01
2022-08-22T18:52:14.001Z,31.14
2022-08-22T18:54:55.227Z,31.27
2022-08-22T18:57:46.704Z,31.49
2022-08-22T19:00:21.777Z,31.57
2022-08-22T19:03:06.503Z,31.69
2022-08-22T19:05:55.275Z,31.83
2022-08-22T19:08:54.074Z,31.77
2022-08-22T19:11:35.137Z,31.73
2022-08-22T19:14:16.270Z,31.69
2022-08-22T19:17:03.387Z,31.58
2022-08-22T19:19:59.719Z,31.47
2022-08-22T19:22:35.390Z,31.29
2022-08-22T19:25:27.289Z,31.23
2022-08-22T19:28:11.547Z,31.12
2022-08-22T19:30:49.236Z,31.08
2022-08-22T19:33:41.938Z,30.95
2022-08-22T19:36:16.228Z,30.90
2022-08-22T19:38:57.626Z,30.90
2022-08-22T19:41:57.480Z,30.87
2022-08-22T19:44:38.653Z,30.87
2022-08-22T19:47:24.275Z,30.91
2022-08-22T19:50:07.551Z,30.92
2022-08-22T19:53:08.738Z,30.91
2022-08-22T19:55:45.169Z,30.97
2022-08-22T19:58:33.184Z,30.98
2022-08-22T20:01:11.314Z,30.97
2022-08-22T20:03:58.158Z,31.06
2022-08-22T20:06:44.612Z,31.10
2022-08-22T20:09:39.040Z,31.17
2022-08-22T20:12:25.649Z,31.26
2022-08-22T20:14:57.521Z,31.29
2022-08-22T20:17:41.510Z,31.35
2022-08-22T20:20:30.501Z,31.42
2022-08-22T20:22:59.458Z,31.48
2022-08-22T20:25:48.007Z,31.58
2022-08-22T20:28:47.187Z,31.68
2022-08-22T20:31:28.799Z,31.77
2022-08-22T20:34:03.451Z,31.95
2022-08-22T20:36:35.321Z,32.06
2022-08-22T20:39:11.841Z,32.21
2022-08-22T20:41:46.645Z,32.31
2022-08-22T20:44:24.611Z,32.38
2022-08-22T20:47:19.402Z,32.49
2022-08-22T20:50:02.957Z,32.58
2022-08-22T20:52:37.760Z,32.62
2022-08-22T20:55:31.650Z,32.71
2022-08-22T20:58:07.838Z,32.80
2022-08-22T21:00:48.497Z,32.95
2022-08-22T21:03:43.140Z,33.05
2022-08-22T21:06:17.266Z,33.18
2022-08-22T21:08:51.281Z,33.29
2022-08-22T21:11:42.024Z,33.44
2022-08-22T21:14:25.208Z,33.57
2022-08-22T21:16:57.317Z,33.67
2022-08-22T21:19:30.483Z,33.86
2022-08-22T21:22:16.564Z,33.91
2022-08-22T21:24:48.533Z,34.07
2022-08-22T21:27:24.463Z,34.19
2022-08-22T21:29:56.250Z,34.32
2022-08-22T21:32:42.865Z,34.42
2022-08-22T21:35:31.635Z,34.65
2022-08-22T21:38:03.815Z,34.74
2022-08-22T21:40:38.220Z,34.83
2022-08-22T21:43:15.362Z,35.00
2022-08-22T21:45:47.373Z,35.12
2022-08-22T21:48:40.655Z,35.29
2022-08-22T21:51:33.804Z,35.44
2022-08-22T21:54:29.369Z,35.61
2022-08-22T21:57:04.813Z,35.80
2022-08-22T21:59:50.981Z,35.92
2022-08-22T22:02:37.451Z,36.10
2022-08-22T22:05:17.930Z,36.31
2022-08-22T22:07:49.839Z,36.46
2022-08-22T22:10:23.320Z,36.69
2022-08-22T22:12:58.875Z,36.85
2022-08-22T22:15:32.961Z,36.99
2022-08-22T22:18:06.408Z,37.11
2022-08-22T22:20:38.747Z,37.20
2022-08-22T22:23:11.623Z,37.35
2022-08-22T22:25:43.875Z,37.45
2022-08-22T22:28:25.207Z,37.56
2022-08-22T22:30:57.043Z,37.70
2022-08-22T22:33:31.665Z,37.79
2022-08-22T22:36:13.198Z,37.92
2022-08-22T22:38:45.193Z,38.06
2022-08-22T22:41:17.031Z,38.16
2022-08-22T22:43:49.213Z,38.27
2022-08-22T22:46:21.582Z,38.43
2022-08-22T22:48:54.003Z,38.61
2022-08-22T22:51:26.310Z,38.70
2022-08-22T22:53:58.631Z,38.86
2022-08-22T22:56:30.743Z,39.05
2022-08-22T22:59:12.641Z,39.14
2022-08-22T23:01:37.992Z,39.21
2022-08-22T23:04:09.786Z,39.25
2022-08-22T23:06:41.649Z,39.37
2022-08-22T23:09:13.713Z,39.46
2022-08-22T23:11:46.006Z,39.58
2022-08-22T23:14:18.465Z,39.73
2022-08-22T23:16:50.471Z,39.80
2022-08-22T23:19:22.258Z,39.93
2022-08-22T23:21:59.090Z,40.02
2022-08-22T23:24:32.752Z,40.15
2022-08-22T23:27:06.232Z,40.21
2022-08-22T23:29:41.093Z,40.36
2022-08-22T23:32:13.515Z,40.42
2022-08-22T23:34:48.774Z,40.56
2022-08-22T23:37:21.878Z,40.64
2022-08-22T23:39:53.617Z,40.81
2022-08-22T23:42:25.305Z,40.89
2022-08-22T23:44:57.072Z,41.04
2022-08-22T23:47:28.860Z,41.19
2022-08-22T23:50:05.968Z,41.28
2022-08-22T23:52:34.220Z,41.39
2022-08-22T23:55:06.250Z,41.47
2022-08-22T23:57:37.833Z,41.56
